sensor_id;sensor_type;location;lat;lon;timestamp;pressure;altitude;pressure_sealevel;temperature;humidity
21234;BME280;10774;42.178;26.578;2023-02-12T00:01:36;101086.41;;;-4.72;71.89
21234;BME280;10774;42.178;26.578;2023-02-12T00:04:02;101057.44;;;-4.81;73.25
21234;BME280;10774;42.178;26.578;2023-02-12T00:06:27;101076.75;;;-4.17;72.40
21234;BME280;10774;42.178;26.578;2023-02-12T00:08:54;101093.81;;;-3.84;71.74
21234;BME280;10774;42.178;26.578;2023-02-12T00:11:22;101075.97;;;-3.42;70.32
21234;BME280;10774;42.178;26.578;2023-02-12T00:13:48;101072.41;;;-3.47;68.63
21234;BME280;10774;42.178;26.578;2023-02-12T00:16:16;101051.47;;;-3.37;68.55
21234;BME280;10774;42.178;26.578;2023-02-12T00:18:42;101061.00;;;-3.49;68.49
21234;BME280;10774;42.178;26.578;2023-02-12T00:21:08;101073.47;;;-3.29;66.93
21234;BME280;10774;42.178;26.578;2023-02-12T00:23:34;101083.97;;;-3.28;66.69
21234;BME280;10774;42.178;26.578;2023-02-12T00:26:04;101092.16;;;-3.75;70.97
21234;BME280;10774;42.178;26.578;2023-02-12T00:28:29;101079.44;;;-4.12;72.53
21234;BME280;10774;42.178;26.578;2023-02-12T00:30:54;101065.28;;;-4.25;74.38
21234;BME280;10774;42.178;26.578;2023-02-12T00:33:20;101071.34;;;-3.62;72.97
21234;BME280;10774;42.178;26.578;2023-02-12T00:35:56;101073.50;;;-3.25;70.45
21234;BME280;10774;42.178;26.578;2023-02-12T00:38:22;101078.41;;;-3.55;71.62
21234;BME280;10774;42.178;26.578;2023-02-12T00:40:47;101056.06;;;-3.21;68.41
21234;BME280;10774;42.178;26.578;2023-02-12T00:43:13;101074.03;;;-3.55;70.13
21234;BME280;10774;42.178;26.578;2023-02-12T00:45:39;101057.03;;;-3.89;71.74
21234;BME280;10774;42.178;26.578;2023-02-12T00:48:04;101064.59;;;-3.42;71.55
21234;BME280;10774;42.178;26.578;2023-02-12T00:50:30;101078.91;;;-3.11;69.87
21234;BME280;10774;42.178;26.578;2023-02-12T00:52:55;101074.22;;;-3.43;68.89
21234;BME280;10774;42.178;26.578;2023-02-12T00:55:20;101060.50;;;-3.14;69.07
21234;BME280;10774;42.178;26.578;2023-02-12T00:57:46;101073.81;;;-2.93;68.35
21234;BME280;10774;42.178;26.578;2023-02-12T01:02:46;101060.84;;;-2.71;66.87
21234;BME280;10774;42.178;26.578;2023-02-12T01:05:13;101059.19;;;-2.61;65.64
21234;BME280;10774;42.178;26.578;2023-02-12T01:07:38;101054.81;;;-2.59;65.09
21234;BME280;10774;42.178;26.578;2023-02-12T01:10:06;101060.97;;;-2.57;65.21
21234;BME280;10774;42.178;26.578;2023-02-12T01:12:31;101055.84;;;-2.38;64.69
21234;BME280;10774;42.178;26.578;2023-02-12T01:14:57;101061.09;;;-2.38;64.92
21234;BME280;10774;42.178;26.578;2023-02-12T01:17:22;101027.63;;;-2.66;65.18
21234;BME280;10774;42.178;26.578;2023-02-12T01:19:48;101054.03;;;-2.45;65.84
21234;BME280;10774;42.178;26.578;2023-02-12T01:22:13;101048.91;;;-2.23;65.38
21234;BME280;10774;42.178;26.578;2023-02-12T01:24:39;101018.00;;;-2.63;65.58
21234;BME280;10774;42.178;26.578;2023-02-12T01:27:04;101048.03;;;-2.25;65.35
21234;BME280;10774;42.178;26.578;2023-02-12T01:29:29;101032.16;;;-2.42;64.40
21234;BME280;10774;42.178;26.578;2023-02-12T01:31:55;100999.72;;;-2.43;64.40
21234;BME280;10774;42.178;26.578;2023-02-12T01:34:20;101040.16;;;-2.25;64.71
21234;BME280;10774;42.178;26.578;2023-02-12T01:36:46;101028.78;;;-3.32;67.64
21234;BME280;10774;42.178;26.578;2023-02-12T01:39:11;101046.56;;;-3.87;72.85
21234;BME280;10774;42.178;26.578;2023-02-12T01:41:41;101005.09;;;-3.40;72.22
21234;BME280;10774;42.178;26.578;2023-02-12T01:44:22;101019.25;;;-3.24;70.32
21234;BME280;10774;42.178;26.578;2023-02-12T01:46:55;101026.66;;;-2.76;69.80
21234;BME280;10774;42.178;26.578;2023-02-12T01:49:24;101022.41;;;-2.60;68.45
21234;BME280;10774;42.178;26.578;2023-02-12T01:51:56;101038.28;;;-2.45;66.94
21234;BME280;10774;42.178;26.578;2023-02-12T01:54:25;101040.97;;;-2.35;66.25
21234;BME280;10774;42.178;26.578;2023-02-12T01:56:51;101022.28;;;-2.78;68.00
21234;BME280;10774;42.178;26.578;2023-02-12T01:59:18;101025.03;;;-2.58;67.38
21234;BME280;10774;42.178;26.578;2023-02-12T02:01:44;101040.97;;;-2.34;66.21
21234;BME280;10774;42.178;26.578;2023-02-12T02:04:16;101037.47;;;-2.33;66.07
21234;BME280;10774;42.178;26.578;2023-02-12T02:06:53;101002.28;;;-2.58;65.42
21234;BME280;10774;42.178;26.578;2023-02-12T02:09:20;101039.19;;;-2.41;65.96
21234;BME280;10774;42.178;26.578;2023-02-12T02:11:46;101049.75;;;-2.27;65.38
21234;BME280;10774;42.178;26.578;2023-02-12T02:14:30;101035.44;;;-3.68;69.68
21234;BME280;10774;42.178;26.578;2023-02-12T02:20:20;101040.94;;;-3.44;74.63
21234;BME280;10774;42.178;26.578;2023-02-12T02:25:50;101043.13;;;-3.00;71.96
21234;BME280;10774;42.178;26.578;2023-02-12T02:31:52;101045.84;;;-2.86;70.81
21234;BME280;10774;42.178;26.578;2023-02-12T02:33:57;101024.72;;;-3.00;71.00
21234;BME280;10774;42.178;26.578;2023-02-12T02:39:05;101049.34;;;-2.87;71.47
21234;BME280;10774;42.178;26.578;2023-02-12T02:43:57;101040.75;;;-2.65;70.19
21234;BME280;10774;42.178;26.578;2023-02-12T02:46:31;101037.09;;;-2.88;70.96
21234;BME280;10774;42.178;26.578;2023-02-12T02:49:04;101032.66;;;-2.91;70.78
21234;BME280;10774;42.178;26.578;2023-02-12T02:51:33;101043.34;;;-2.72;70.29
21234;BME280;10774;42.178;26.578;2023-02-12T02:54:08;101046.88;;;-2.67;70.67
21234;BME280;10774;42.178;26.578;2023-02-12T02:56:38;101051.31;;;-2.58;70.38
21234;BME280;10774;42.178;26.578;2023-02-12T02:59:15;101052.94;;;-2.74;71.30
21234;BME280;10774;42.178;26.578;2023-02-12T03:01:47;101041.59;;;-2.73;72.00
21234;BME280;10774;42.178;26.578;2023-02-12T03:04:38;101044.22;;;-2.70;72.01
21234;BME280;10774;42.178;26.578;2023-02-12T03:07:13;101047.00;;;-2.49;72.29
21234;BME280;10774;42.178;26.578;2023-02-12T03:10:06;101053.31;;;-2.24;71.49
21234;BME280;10774;42.178;26.578;2023-02-12T03:12:36;101049.03;;;-2.05;70.59
21234;BME280;10774;42.178;26.578;2023-02-12T03:15:14;101005.13;;;-2.12;69.07
21234;BME280;10774;42.178;26.578;2023-02-12T03:17:46;101018.38;;;-1.94;68.32
21234;BME280;10774;42.178;26.578;2023-02-12T03:20:18;101037.56;;;-2.19;69.40
21234;BME280;10774;42.178;26.578;2023-02-12T03:22:57;101039.31;;;-2.20;70.51
21234;BME280;10774;42.178;26.578;2023-02-12T03:25:32;101038.41;;;-2.23;71.47
21234;BME280;10774;42.178;26.578;2023-02-12T03:28:15;101022.69;;;-2.06;71.02
21234;BME280;10774;42.178;26.578;2023-02-12T03:30:55;101024.31;;;-2.34;71.94
21234;BME280;10774;42.178;26.578;2023-02-12T03:33:28;101028.69;;;-2.37;74.12
21234;BME280;10774;42.178;26.578;2023-02-12T03:36:09;101025.25;;;-2.26;73.86
21234;BME280;10774;42.178;26.578;2023-02-12T03:38:50;101021.75;;;-2.24;74.34
21234;BME280;10774;42.178;26.578;2023-02-12T03:41:24;101022.63;;;-2.26;74.17
21234;BME280;10774;42.178;26.578;2023-02-12T03:44:42;101001.66;;;-2.08;73.68
21234;BME280;10774;42.178;26.578;2023-02-12T03:49:37;100997.50;;;-3.09;78.35
21234;BME280;10774;42.178;26.578;2023-02-12T03:52:07;100994.06;;;-3.04;79.81
21234;BME280;10774;42.178;26.578;2023-02-12T03:54:32;100984.41;;;-3.03;80.45
21234;BME280;10774;42.178;26.578;2023-02-12T03:57:21;100997.78;;;-2.71;79.72
21234;BME280;10774;42.178;26.578;2023-02-12T03:59:48;101023.81;;;-3.05;81.58
21234;BME280;10774;42.178;26.578;2023-02-12T04:02:15;101010.97;;;-2.67;80.83
21234;BME280;10774;42.178;26.578;2023-02-12T04:04:43;101013.66;;;-2.56;79.50
21234;BME280;10774;42.178;26.578;2023-02-12T04:07:09;101011.91;;;-2.57;79.88
21234;BME280;10774;42.178;26.578;2023-02-12T04:09:35;100997.91;;;-2.56;79.66
21234;BME280;10774;42.178;26.578;2023-02-12T04:20:13;101002.56;;;-2.04;77.48
21234;BME280;10774;42.178;26.578;2023-02-12T04:22:53;101001.72;;;-1.91;77.03
21234;BME280;10774;42.178;26.578;2023-02-12T04:31:21;101002.66;;;-1.71;75.50
21234;BME280;10774;42.178;26.578;2023-02-12T04:36:25;101000.06;;;-1.62;74.07
21234;BME280;10774;42.178;26.578;2023-02-12T04:39:02;101013.97;;;-2.04;75.47
21234;BME280;10774;42.178;26.578;2023-02-12T04:41:30;101003.44;;;-2.04;76.41
21234;BME280;10774;42.178;26.578;2023-02-12T04:43:55;100993.81;;;-2.00;76.52
21234;BME280;10774;42.178;26.578;2023-02-12T04:46:21;101016.72;;;-1.67;75.97
21234;BME280;10774;42.178;26.578;2023-02-12T04:48:52;101018.34;;;-2.01;77.06
21234;BME280;10774;42.178;26.578;2023-02-12T04:51:19;101013.84;;;-2.25;78.27
21234;BME280;10774;42.178;26.578;2023-02-12T04:53:45;101003.41;;;-2.07;77.80
21234;BME280;10774;42.178;26.578;2023-02-12T04:56:11;101015.84;;;-1.72;77.22
21234;BME280;10774;42.178;26.578;2023-02-12T04:58:37;100993.91;;;-1.65;76.10
21234;BME280;10774;42.178;26.578;2023-02-12T05:01:03;101011.50;;;-1.44;75.50
21234;BME280;10774;42.178;26.578;2023-02-12T05:03:28;101013.25;;;-1.43;74.00
21234;BME280;10774;42.178;26.578;2023-02-12T05:05:53;101022.94;;;-1.47;73.85
21234;BME280;10774;42.178;26.578;2023-02-12T05:08:19;101040.50;;;-1.40;74.20
21234;BME280;10774;42.178;26.578;2023-02-12T05:10:44;101035.63;;;-2.46;78.59
21234;BME280;10774;42.178;26.578;2023-02-12T05:13:10;101045.56;;;-3.17;83.05
21234;BME280;10774;42.178;26.578;2023-02-12T05:15:37;101048.13;;;-3.24;86.96
21234;BME280;10774;42.178;26.578;2023-02-12T05:18:03;101031.59;;;-3.12;86.00
21234;BME280;10774;42.178;26.578;2023-02-12T05:20:28;101064.91;;;-3.10;84.61
21234;BME280;10774;42.178;26.578;2023-02-12T05:22:54;101052.06;;;-3.64;87.99
21234;BME280;10774;42.178;26.578;2023-02-12T05:25:19;101044.72;;;-3.12;87.63
21234;BME280;10774;42.178;26.578;2023-02-12T05:27:45;101089.06;;;-2.49;86.34
21234;BME280;10774;42.178;26.578;2023-02-12T05:30:11;101094.44;;;-2.37;84.49
21234;BME280;10774;42.178;26.578;2023-02-12T05:32:36;101082.31;;;-2.10;83.21
21234;BME280;10774;42.178;26.578;2023-02-12T05:35:02;101101.63;;;-2.08;82.04
21234;BME280;10774;42.178;26.578;2023-02-12T05:37:27;101085.84;;;-2.08;82.29
21234;BME280;10774;42.178;26.578;2023-02-12T05:39:53;101080.63;;;-1.99;82.02
21234;BME280;10774;42.178;26.578;2023-02-12T05:42:18;101088.63;;;-1.74;81.09
21234;BME280;10774;42.178;26.578;2023-02-12T05:44:43;101124.75;;;-1.43;80.89
21234;BME280;10774;42.178;26.578;2023-02-12T05:47:09;101111.63;;;-1.29;80.44
21234;BME280;10774;42.178;26.578;2023-02-12T05:49:35;101106.41;;;-1.15;79.91
21234;BME280;10774;42.178;26.578;2023-02-12T05:52:00;101115.22;;;-0.99;79.46
21234;BME280;10774;42.178;26.578;2023-02-12T05:54:26;101109.09;;;-0.88;78.49
21234;BME280;10774;42.178;26.578;2023-02-12T05:56:51;101095.03;;;-0.81;77.62
21234;BME280;10774;42.178;26.578;2023-02-12T05:59:19;101131.09;;;-0.49;76.90
21234;BME280;10774;42.178;26.578;2023-02-12T06:01:46;101124.94;;;-0.72;76.95
21234;BME280;10774;42.178;26.578;2023-02-12T06:04:16;101124.91;;;-0.48;76.78
21234;BME280;10774;42.178;26.578;2023-02-12T06:06:41;101098.56;;;-0.66;75.77
21234;BME280;10774;42.178;26.578;2023-02-12T06:09:09;101139.84;;;-0.74;77.02
21234;BME280;10774;42.178;26.578;2023-02-12T06:11:34;101132.88;;;-0.52;77.50
21234;BME280;10774;42.178;26.578;2023-02-12T06:14:04;101141.66;;;-0.26;76.55
21234;BME280;10774;42.178;26.578;2023-02-12T06:16:31;101142.50;;;-0.13;76.23
21234;BME280;10774;42.178;26.578;2023-02-12T06:18:57;101149.50;;;0.14;75.01
21234;BME280;10774;42.178;26.578;2023-02-12T06:21:25;101128.38;;;0.12;74.34
21234;BME280;10774;42.178;26.578;2023-02-12T06:23:51;101152.09;;;0.31;74.35
21234;BME280;10774;42.178;26.578;2023-02-12T06:26:17;101142.41;;;0.30;72.00
21234;BME280;10774;42.178;26.578;2023-02-12T06:28:44;101160.97;;;-0.39;75.68
21234;BME280;10774;42.178;26.578;2023-02-12T06:31:23;101165.34;;;-0.70;80.32
21234;BME280;10774;42.178;26.578;2023-02-12T06:33:49;101153.81;;;-1.18;84.55
21234;BME280;10774;42.178;26.578;2023-02-12T06:36:16;101152.88;;;-1.36;84.91
21234;BME280;10774;42.178;26.578;2023-02-12T06:38:41;101167.91;;;-1.01;84.43
21234;BME280;10774;42.178;26.578;2023-02-12T06:41:07;101170.53;;;-1.01;85.89
21234;BME280;10774;42.178;26.578;2023-02-12T06:43:32;101156.56;;;-0.69;83.88
21234;BME280;10774;42.178;26.578;2023-02-12T06:46:02;101156.59;;;-0.39;82.14
21234;BME280;10774;42.178;26.578;2023-02-12T06:48:28;101176.81;;;-0.13;81.09
21234;BME280;10774;42.178;26.578;2023-02-12T06:50:54;101178.56;;;-0.14;81.15
21234;BME280;10774;42.178;26.578;2023-02-12T06:53:19;101168.00;;;-0.23;80.03
21234;BME280;10774;42.178;26.578;2023-02-12T06:55:45;101173.25;;;0.15;82.04
21234;BME280;10774;42.178;26.578;2023-02-12T06:58:10;101167.97;;;0.21;79.51
21234;BME280;10774;42.178;26.578;2023-02-12T07:00:36;101182.84;;;0.47;78.57
21234;BME280;10774;42.178;26.578;2023-02-12T07:03:01;101161.69;;;0.62;76.65
21234;BME280;10774;42.178;26.578;2023-02-12T07:05:26;101161.66;;;0.68;74.68
21234;BME280;10774;42.178;26.578;2023-02-12T07:07:52;101159.84;;;0.83;74.17
21234;BME280;10774;42.178;26.578;2023-02-12T07:10:18;101177.28;;;1.14;73.16
21234;BME280;10774;42.178;26.578;2023-02-12T07:12:44;101174.44;;;1.49;83.81
21234;BME280;10774;42.178;26.578;2023-02-12T07:15:10;101175.31;;;1.53;74.97
21234;BME280;10774;42.178;26.578;2023-02-12T07:17:35;101169.00;;;1.66;71.82
21234;BME280;10774;42.178;26.578;2023-02-12T07:20:01;101146.94;;;1.70;69.77
21234;BME280;10774;42.178;26.578;2023-02-12T07:22:27;101183.75;;;1.95;69.02
21234;BME280;10774;42.178;26.578;2023-02-12T07:24:52;101169.84;;;1.74;67.39
21234;BME280;10774;42.178;26.578;2023-02-12T07:27:18;101164.44;;;1.87;66.98
21234;BME280;10774;42.178;26.578;2023-02-12T07:29:43;101177.00;;;1.57;69.20
21234;BME280;10774;42.178;26.578;2023-02-12T07:32:08;101189.22;;;1.79;69.50
21234;BME280;10774;42.178;26.578;2023-02-12T07:34:34;101192.63;;;1.92;67.77
21234;BME280;10774;42.178;26.578;2023-02-12T07:36:59;101177.69;;;1.82;68.24
21234;BME280;10774;42.178;26.578;2023-02-12T07:39:25;101191.78;;;1.90;68.29
21234;BME280;10774;42.178;26.578;2023-02-12T07:41:50;101193.78;;;1.59;68.02
21234;BME280;10774;42.178;26.578;2023-02-12T07:44:16;101161.22;;;1.48;70.01
21234;BME280;10774;42.178;26.578;2023-02-12T07:46:43;101193.53;;;1.88;68.88
21234;BME280;10774;42.178;26.578;2023-02-12T07:49:13;101179.31;;;1.98;67.77
21234;BME280;10774;42.178;26.578;2023-02-12T07:51:39;101165.28;;;1.90;69.17
21234;BME280;10774;42.178;26.578;2023-02-12T07:54:05;101171.59;;;1.72;70.95
21234;BME280;10774;42.178;26.578;2023-02-12T07:56:33;101185.66;;;1.80;70.68
21234;BME280;10774;42.178;26.578;2023-02-12T07:59:02;101175.47;;;1.25;72.24
21234;BME280;10774;42.178;26.578;2023-02-12T08:01:30;101182.34;;;1.51;73.26
21234;BME280;10774;42.178;26.578;2023-02-12T08:04:02;101183.06;;;1.74;71.68
21234;BME280;10774;42.178;26.578;2023-02-12T08:06:29;101173.97;;;2.06;69.60
21234;BME280;10774;42.178;26.578;2023-02-12T08:09:00;101164.03;;;2.28;68.78
21234;BME280;10774;42.178;26.578;2023-02-12T08:11:26;101184.03;;;2.56;68.11
21234;BME280;10774;42.178;26.578;2023-02-12T08:13:53;101175.22;;;2.53;67.78
21234;BME280;10774;42.178;26.578;2023-02-12T08:16:21;101186.63;;;2.61;67.10
21234;BME280;10774;42.178;26.578;2023-02-12T08:18:47;101184.63;;;2.81;66.28
21234;BME280;10774;42.178;26.578;2023-02-12T08:21:16;101170.34;;;2.92;65.75
21234;BME280;10774;42.178;26.578;2023-02-12T08:23:42;101176.28;;;3.12;64.36
21234;BME280;10774;42.178;26.578;2023-02-12T08:26:17;101184.44;;;2.97;64.33
21234;BME280;10774;42.178;26.578;2023-02-12T08:28:46;101143.16;;;2.76;65.08
21234;BME280;10774;42.178;26.578;2023-02-12T08:31:23;101157.88;;;2.24;67.64
21234;BME280;10774;42.178;26.578;2023-02-12T08:33:50;101173.16;;;2.81;67.07
21234;BME280;10774;42.178;26.578;2023-02-12T08:36:18;101177.03;;;3.22;65.62
21234;BME280;10774;42.178;26.578;2023-02-12T08:38:44;101156.44;;;3.39;63.73
21234;BME280;10774;42.178;26.578;2023-02-12T08:41:21;101186.91;;;3.69;63.43
21234;BME280;10774;42.178;26.578;2023-02-12T08:43:48;101177.59;;;3.98;61.36
21234;BME280;10774;42.178;26.578;2023-02-12T08:46:20;101202.56;;;4.38;59.56
21234;BME280;10774;42.178;26.578;2023-02-12T08:48:46;101194.03;;;3.67;60.67
21234;BME280;10774;42.178;26.578;2023-02-12T08:51:17;101205.69;;;4.11;59.96
21234;BME280;10774;42.178;26.578;2023-02-12T08:53:45;101200.00;;;4.32;58.46
21234;BME280;10774;42.178;26.578;2023-02-12T08:56:12;101185.84;;;4.33;57.95
21234;BME280;10774;42.178;26.578;2023-02-12T08:58:38;101196.50;;;4.30;57.81
21234;BME280;10774;42.178;26.578;2023-02-12T09:01:04;101210.63;;;3.81;59.03
21234;BME280;10774;42.178;26.578;2023-02-12T09:03:33;101173.78;;;3.61;59.07
21234;BME280;10774;42.178;26.578;2023-02-12T09:06:04;101196.66;;;4.21;58.92
21234;BME280;10774;42.178;26.578;2023-02-12T09:08:30;101189.94;;;4.50;57.34
21234;BME280;10774;42.178;26.578;2023-02-12T09:10:56;101210.72;;;4.76;56.27
21234;BME280;10774;42.178;26.578;2023-02-12T09:13:21;101192.66;;;4.91;55.59
21234;BME280;10774;42.178;26.578;2023-02-12T09:15:46;101184.22;;;5.13;55.64
21234;BME280;10774;42.178;26.578;2023-02-12T09:18:13;101199.53;;;5.43;55.36
21234;BME280;10774;42.178;26.578;2023-02-12T09:20:41;101177.69;;;5.28;53.69
21234;BME280;10774;42.178;26.578;2023-02-12T09:23:10;101195.94;;;5.44;52.95
21234;BME280;10774;42.178;26.578;2023-02-12T09:25:39;101189.66;;;5.48;52.70
21234;BME280;10774;42.178;26.578;2023-02-12T09:28:04;101183.16;;;5.59;52.07
21234;BME280;10774;42.178;26.578;2023-02-12T09:30:30;101200.06;;;5.96;51.10
21234;BME280;10774;42.178;26.578;2023-02-12T09:32:55;101200.41;;;6.17;49.31
21234;BME280;10774;42.178;26.578;2023-02-12T09:35:22;101211.59;;;6.31;49.05
21234;BME280;10774;42.178;26.578;2023-02-12T09:37:48;101213.63;;;6.23;48.59
21234;BME280;10774;42.178;26.578;2023-02-12T09:40:24;101210.69;;;6.32;48.63
21234;BME280;10774;42.178;26.578;2023-02-12T09:43:17;101215.63;;;6.47;48.58
21234;BME280;10774;42.178;26.578;2023-02-12T09:46:04;101224.31;;;6.55;49.29
21234;BME280;10774;42.178;26.578;2023-02-12T09:48:41;101216.94;;;6.65;48.52
21234;BME280;10774;42.178;26.578;2023-02-12T09:51:11;101198.72;;;5.77;49.51
21234;BME280;10774;42.178;26.578;2023-02-12T09:53:40;101223.94;;;6.35;49.18
21234;BME280;10774;42.178;26.578;2023-02-12T09:56:19;101217.16;;;6.22;49.18
21234;BME280;10774;42.178;26.578;2023-02-12T09:58:52;101225.69;;;6.36;48.25
21234;BME280;10774;42.178;26.578;2023-02-12T10:01:20;101218.91;;;6.57;48.05
21234;BME280;10774;42.178;26.578;2023-02-12T10:03:48;101172.69;;;6.24;47.20
21234;BME280;10774;42.178;26.578;2023-02-12T10:09:08;101214.56;;;5.83;46.45
21234;BME280;10774;42.178;26.578;2023-02-12T10:17:17;101221.53;;;6.59;45.56
21234;BME280;10774;42.178;26.578;2023-02-12T10:22:34;101218.16;;;7.16;45.38
21234;BME280;10774;42.178;26.578;2023-02-12T10:28:12;101208.56;;;5.73;46.82
21234;BME280;10774;42.178;26.578;2023-02-12T10:30:48;101209.59;;;6.05;45.16
21234;BME280;10774;42.178;26.578;2023-02-12T10:33:26;101190.09;;;6.37;45.44
21234;BME280;10774;42.178;26.578;2023-02-12T10:38:48;101210.88;;;7.50;44.70
21234;BME280;10774;42.178;26.578;2023-02-12T10:41:15;101209.91;;;7.81;42.95
21234;BME280;10774;42.178;26.578;2023-02-12T10:43:40;101205.88;;;6.46;44.51
21234;BME280;10774;42.178;26.578;2023-02-12T10:46:13;101175.31;;;6.89;44.31
21234;BME280;10774;42.178;26.578;2023-02-12T10:48:39;101193.47;;;7.07;43.74
21234;BME280;10774;42.178;26.578;2023-02-12T10:53:36;101200.19;;;6.59;43.64
21234;BME280;10774;42.178;26.578;2023-02-12T10:58:41;101195.31;;;6.42;44.74
21234;BME280;10774;42.178;26.578;2023-02-12T11:01:26;101210.78;;;5.93;45.65
21234;BME280;10774;42.178;26.578;2023-02-12T11:03:54;101211.31;;;6.43;45.08
21234;BME280;10774;42.178;26.578;2023-02-12T11:06:23;101219.44;;;6.39;46.03
21234;BME280;10774;42.178;26.578;2023-02-12T11:08:50;101209.47;;;6.45;46.00
21234;BME280;10774;42.178;26.578;2023-02-12T11:11:27;101202.63;;;6.68;45.10
21234;BME280;10774;42.178;26.578;2023-02-12T11:14:02;101202.78;;;6.62;44.02
21234;BME280;10774;42.178;26.578;2023-02-12T11:19:05;101196.69;;;7.19;43.60
21234;BME280;10774;42.178;26.578;2023-02-12T11:21:32;101219.81;;;6.89;43.00
21234;BME280;10774;42.178;26.578;2023-02-12T11:24:30;101200.72;;;6.40;44.06
21234;BME280;10774;42.178;26.578;2023-02-12T11:27:22;101195.16;;;6.80;44.49
21234;BME280;10774;42.178;26.578;2023-02-12T11:30:06;101204.94;;;6.80;43.12
21234;BME280;10774;42.178;26.578;2023-02-12T11:32:35;101210.78;;;6.62;43.53
21234;BME280;10774;42.178;26.578;2023-02-12T11:35:16;101201.97;;;6.60;43.33
21234;BME280;10774;42.178;26.578;2023-02-12T11:37:48;101179.81;;;6.56;43.40
21234;BME280;10774;42.178;26.578;2023-02-12T11:40:34;101200.56;;;6.77;43.20
21234;BME280;10774;42.178;26.578;2023-02-12T11:43:01;101205.97;;;6.76;43.23
21234;BME280;10774;42.178;26.578;2023-02-12T11:45:40;101201.38;;;6.81;43.12
21234;BME280;10774;42.178;26.578;2023-02-12T11:48:34;101195.59;;;6.96;43.04
21234;BME280;10774;42.178;26.578;2023-02-12T11:51:03;101196.25;;;7.34;42.44
21234;BME280;10774;42.178;26.578;2023-02-12T11:53:36;101195.97;;;7.14;42.70
21234;BME280;10774;42.178;26.578;2023-02-12T11:56:05;101179.09;;;7.12;42.36
21234;BME280;10774;42.178;26.578;2023-02-12T11:58:32;101184.81;;;6.99;43.18
21234;BME280;10774;42.178;26.578;2023-02-12T12:11:24;101198.44;;;7.20;42.94
21234;BME280;10774;42.178;26.578;2023-02-12T12:14:10;101162.66;;;6.96;42.43
21234;BME280;10774;42.178;26.578;2023-02-12T12:25:15;101192.31;;;7.16;43.08
21234;BME280;10774;42.178;26.578;2023-02-12T12:52:50;101209.75;;;7.57;43.88
21234;BME280;10774;42.178;26.578;2023-02-12T12:55:25;101218.53;;;7.89;44.13
21234;BME280;10774;42.178;26.578;2023-02-12T13:10:59;101245.84;;;9.27;43.35
21234;BME280;10774;42.178;26.578;2023-02-12T13:13:38;101237.22;;;9.19;44.34
21234;BME280;10774;42.178;26.578;2023-02-12T13:18:58;101257.28;;;10.21;42.97
21234;BME280;10774;42.178;26.578;2023-02-12T13:21:53;101249.13;;;10.46;42.28
21234;BME280;10774;42.178;26.578;2023-02-12T13:26:56;101259.09;;;10.20;42.25
21234;BME280;10774;42.178;26.578;2023-02-12T13:29:33;101260.75;;;10.03;42.86
21234;BME280;10774;42.178;26.578;2023-02-12T13:32:24;101263.88;;;9.92;43.29
21234;BME280;10774;42.178;26.578;2023-02-12T13:34:53;101268.56;;;9.63;43.54
21234;BME280;10774;42.178;26.578;2023-02-12T13:37:41;101267.75;;;8.38;45.92
21234;BME280;10774;42.178;26.578;2023-02-12T13:40:24;101276.06;;;8.29;46.14
21234;BME280;10774;42.178;26.578;2023-02-12T13:49:05;101299.59;;;7.62;48.63
21234;BME280;10774;42.178;26.578;2023-02-12T13:56:55;101300.88;;;6.86;51.21
21234;BME280;10774;42.178;26.578;2023-02-12T14:04:33;101329.06;;;6.62;52.99
21234;BME280;10774;42.178;26.578;2023-02-12T14:09:37;101335.44;;;6.57;53.26
21234;BME280;10774;42.178;26.578;2023-02-12T14:12:11;101332.81;;;6.53;53.56
21234;BME280;10774;42.178;26.578;2023-02-12T14:14:47;101341.59;;;6.59;53.97
21234;BME280;10774;42.178;26.578;2023-02-12T14:27:54;101379.41;;;6.01;55.65
21234;BME280;10774;42.178;26.578;2023-02-12T14:30:32;101382.03;;;6.03;56.42
21234;BME280;10774;42.178;26.578;2023-02-12T14:33:21;101392.00;;;5.93;56.99
21234;BME280;10774;42.178;26.578;2023-02-12T14:35:49;101393.88;;;5.88;57.70
21234;BME280;10774;42.178;26.578;2023-02-12T14:41:29;101406.28;;;5.89;58.38
21234;BME280;10774;42.178;26.578;2023-02-12T14:47:01;101419.75;;;5.83;57.85
21234;BME280;10774;42.178;26.578;2023-02-12T14:49:38;101403.78;;;5.82;57.68
21234;BME280;10774;42.178;26.578;2023-02-12T14:57:39;101431.78;;;5.58;58.22
21234;BME280;10774;42.178;26.578;2023-02-12T15:02:44;101440.69;;;5.57;58.53
21234;BME280;10774;42.178;26.578;2023-02-12T15:05:26;101428.41;;;5.49;58.64
21234;BME280;10774;42.178;26.578;2023-02-12T15:07:56;101430.44;;;5.35;58.81
21234;BME280;10774;42.178;26.578;2023-02-12T15:10:29;101463.16;;;5.43;58.75
21234;BME280;10774;42.178;26.578;2023-02-12T15:15:51;101450.91;;;5.32;58.17
21234;BME280;10774;42.178;26.578;2023-02-12T15:18:23;101477.22;;;5.50;58.68
21234;BME280;10774;42.178;26.578;2023-02-12T15:21:10;101489.00;;;5.38;58.91
21234;BME280;10774;42.178;26.578;2023-02-12T15:23:42;101466.13;;;5.25;59.56
21234;BME280;10774;42.178;26.578;2023-02-12T15:26:14;101494.25;;;5.41;59.32
21234;BME280;10774;42.178;26.578;2023-02-12T15:28:41;101481.09;;;5.34;59.75
21234;BME280;10774;42.178;26.578;2023-02-12T15:31:15;101489.19;;;5.28;60.09
21234;BME280;10774;42.178;26.578;2023-02-12T15:33:45;101498.09;;;5.25;61.01
21234;BME280;10774;42.178;26.578;2023-02-12T15:36:17;101510.66;;;5.17;60.86
21234;BME280;10774;42.178;26.578;2023-02-12T15:38:47;101515.88;;;5.23;61.19
21234;BME280;10774;42.178;26.578;2023-02-12T15:41:36;101526.63;;;5.17;61.55
21234;BME280;10774;42.178;26.578;2023-02-12T15:44:19;101507.38;;;4.99;61.35
21234;BME280;10774;42.178;26.578;2023-02-12T15:47:11;101528.06;;;5.36;61.64
21234;BME280;10774;42.178;26.578;2023-02-12T15:49:39;101530.78;;;5.33;61.47
21234;BME280;10774;42.178;26.578;2023-02-12T15:54:34;101555.44;;;5.44;62.31